Punta Gorda, FL

6:49 PM EDT on March 26, 2015 (GMT -0400)
Charlotte County | | Change Station
CLOSE
Current Station
Airport
Location: Punta Gorda,
Elevation: 26 ft
Nearby Weather Stations

Elev 26 ft 26.92 °N, 81.99 °W | Updated 56 minutes ago

Scattered Clouds
Scattered Clouds
82 °F
Feels Like 86 °F
N
17
Wind Variable Wind from SW

Today
High -- | Low -- °F
--% Chance of Precip.
Yesterday
High -- | Low -- °F
Precip. -- in
7:25 AM 7:42 PM
Waxing Crescent, 46% visible
Pressure 29.94 in
Visibility 10.0 miles
Clouds Scattered Clouds 2500 ft
Heat Index 86 °F
Dew Point 71 °F
Humidity 69%
Rainfall 0.00 in
Snow Depth Not available.
UV 2 out of 12
Pollen 9.10 out of 12
Air Quality Not available.
Flu Activity Not available.
METAR KPGD 262153Z 23015KT 10SM SCT025 28/22 A2993 RMK AO2 SLP136 T02780217

More Conditions Fewer Conditions

Pressure 29.94 in
Visibility 10.0 miles
Clouds Scattered Clouds 2500 ft
Heat Index 86 °F
Dew Point 71 °F
Humidity 69%
Rainfall 0.00 in
Snow Depth Not available.
UV 2 out of 12
Pollen 9.10 out of 12
Air Quality Not available.
Flu Activity Not available.
METAR KPGD 262153Z 23015KT 10SM SCT025 28/22 A2993 RMK AO2 SLP136 T02780217

More Conditions Fewer Conditions

10-Day Weather Forecast

Almanac

Astronomy

Mar. 26, 2015 Rise Set
Actual Time
Civil Twilight
Nautical Twilight
Astronomical Twilight
Moon
Length of Visible Light
Length of Day
Tomorrow will be .
, % of the Moon is Illuminated

Today's Extremes

State Highs State Lows

Community

WunderPhotos

Upload Photos

1,808,629 photos uploaded!

WunderBlogs® & News

Nearby

Air Quality

  Air Quality AQ Index Pollutant
Not available.

Snow Depth

Station Depth Elevation

Earthquake Activity

City Distance Mag. Time & Date
Minimum magnitude displayed is 2.5.

Coastal Water Temperatures

Place Temperature

Stations

Nearby Weather Stations

Station Location Temp. Windchill Dew Point Humidity Wind Precip. Elev Updated Type